Time;durP1;ratioP1;P1;durP2;ratioP2;P2;SDS_P1;SDS_P2;PMS_P1;PMS_P2;Temp;Humidity;BMP_temperature;BMP_pressure;BME280_temperature;BME280_humidity;BME280_pressure;Samples;Min_cycle;Max_cycle;Signal;HPM_P1;HPM_P2
2023/08/12 00:20:42;;;;;;;8.07;3.97;;;14.90;99.90;;;;;;4677539;27;20268;-82
2023/08/12 01:05:48;;;;;;;10.33;4.43;;;14.60;99.90;;;;;;6164014;22;20214;-81
2023/08/12 01:29:26;;;;;;;;;;;;;;;;;;;;;
2023/08/12 01:33:58;;;;;;;8.63;4.70;;;14.30;99.90;;;;;;6212722;23;20175;-82
2023/08/12 01:56:16;;;;;;;10.17;5.07;;;14.00;99.90;;;;;;6189234;23;20214;-82
2023/08/12 01:59:19;;;;;;;11.93;5.20;;;13.90;99.90;;;;;;6105143;22;20233;-81
2023/08/12 02:02:27;;;;;;;9.77;4.87;;;14.00;99.90;;;;;;6197268;23;20180;-81
2023/08/12 02:06:20;;;;;;;16.60;5.03;;;13.90;99.90;;;;;;6135451;23;20536;-81
2023/08/12 02:10:20;;;;;;;14.13;5.20;;;13.90;99.90;;;;;;5993425;23;20197;-81
2023/08/12 02:17:42;;;;;;;9.70;4.70;;;13.90;99.90;;;;;;6131602;23;20255;-82
2023/08/12 02:21:48;;;;;;;11.67;4.80;;;13.90;99.90;;;;;;6107012;23;20179;-81
2023/08/12 02:26:04;;;;;;;;;;;;;;;;;;;;;
2023/08/12 02:34:12;;;;;;;10.07;4.93;;;13.80;99.90;;;;;;6042956;23;20209;-81
2023/08/12 03:25:56;;;;;;;11.50;5.77;;;13.60;99.90;;;;;;6306778;22;20467;-83
2023/08/12 03:28:47;;;;;;;10.30;5.43;;;13.60;99.90;;;;;;6311847;22;20476;-88
2023/08/12 03:31:20;;;;;;;10.37;5.73;;;13.50;99.90;;;;;;6298637;22;20155;-85
2023/08/12 03:34:01;;;;;;;10.87;5.00;;;13.50;99.90;;;;;;6347200;22;20261;-86
2023/08/12 03:36:28;;;;;;;9.13;5.63;;;13.60;99.90;;;;;;6322961;22;20159;-88
2023/08/12 03:39:10;;;;;;;11.13;6.10;;;13.60;99.90;;;;;;6300246;22;20188;-86
2023/08/12 03:41:37;;;;;;;8.97;5.23;;;13.60;99.90;;;;;;6351751;22;20498;-89
2023/08/12 03:44:14;;;;;;;11.43;5.80;;;13.60;99.90;;;;;;6323981;22;20203;-88
2023/08/12 03:46:41;;;;;;;10.40;5.63;;;13.50;99.90;;;;;;6324744;22;20171;-88
2023/08/12 03:49:08;;;;;;;14.33;5.97;;;13.50;99.90;;;;;;6324158;22;20184;-88
2023/08/12 03:51:35;;;;;;;14.40;5.77;;;13.50;99.90;;;;;;6324060;22;20163;-88
2023/08/12 03:54:03;;;;;;;12.07;5.93;;;13.50;99.90;;;;;;6324591;22;20576;-88
2023/08/12 03:56:30;;;;;;;12.17;5.90;;;13.50;99.90;;;;;;6298657;22;20167;-87
2023/08/12 03:59:00;;;;;;;14.73;6.17;;;13.70;99.90;;;;;;6322201;22;20185;-87
2023/08/12 04:01:40;;;;;;;10.60;5.33;;;13.60;99.90;;;;;;6293609;22;20164;-87
2023/08/12 04:04:21;;;;;;;12.53;6.07;;;13.60;99.90;;;;;;6317285;22;20557;-88
2023/08/12 04:06:53;;;;;;;12.90;6.30;;;13.70;99.90;;;;;;6316595;22;20634;-91
2023/08/12 04:09:20;;;;;;;12.37;6.20;;;13.70;99.90;;;;;;6343908;22;20203;-90
2023/08/12 04:11:47;;;;;;;12.43;6.30;;;13.70;99.90;;;;;;6316809;22;20164;-89
2023/08/12 04:14:34;;;;;;;13.03;5.97;;;13.70;99.90;;;;;;6294387;22;20464;-88
2023/08/12 04:17:26;;;;;;;11.67;6.30;;;13.80;99.90;;;;;;6343815;22;20245;-89
2023/08/12 04:20:16;;;;;;;13.87;6.50;;;13.90;99.90;;;;;;6321642;22;20243;-88
2023/08/12 04:23:08;;;;;;;11.23;6.00;;;14.00;99.90;;;;;;6316365;22;20184;-89
2023/08/12 04:25:42;;;;;;;10.97;5.83;;;14.10;99.90;;;;;;6316375;22;20403;-88
2023/08/12 04:28:17;;;;;;;12.70;6.33;;;14.20;99.90;;;;;;6292950;22;20191;-88
2023/08/12 04:30:48;;;;;;;12.97;6.00;;;14.20;99.90;;;;;;6315186;22;20168;-88
2023/08/12 04:33:22;;;;;;;12.20;5.73;;;14.40;99.90;;;;;;6316492;22;20207;-88
2023/08/12 04:35:53;;;;;;;12.20;5.90;;;14.40;99.90;;;;;;6317362;22;20225;-87
2023/08/12 04:38:20;;;;;;;11.73;6.13;;;14.50;99.90;;;;;;6316564;22;20191;-89
2023/08/12 04:40:52;;;;;;;16.13;6.23;;;14.60;99.90;;;;;;6315433;22;20164;-87
2023/08/12 04:43:19;;;;;;;13.83;6.10;;;14.70;99.90;;;;;;6316306;22;20192;-88
2023/08/12 04:45:46;;;;;;;12.20;5.87;;;14.70;99.90;;;;;;6343829;22;20161;-88
2023/08/12 04:48:14;;;;;;;15.87;6.00;;;14.80;99.90;;;;;;6316531;22;20495;-87
2023/08/12 04:50:44;;;;;;;11.67;5.97;;;14.90;99.90;;;;;;6316937;22;20164;-88
2023/08/12 04:53:14;;;;;;;11.73;6.20;;;14.90;99.90;;;;;;6192707;23;20187;-88
2023/08/12 04:55:51;;;;;;;11.27;5.77;;;15.00;99.90;;;;;;6168430;23;20170;-89
2023/08/12 04:58:22;;;;;;;13.93;5.73;;;15.10;99.90;;;;;;6167034;23;20221;-88
2023/08/12 05:00:54;;;;;;;10.43;5.70;;;15.20;99.90;;;;;;6218128;23;20205;-87
2023/08/12 05:03:21;;;;;;;11.30;5.50;;;15.40;99.90;;;;;;6193368;23;20237;-88
2023/08/12 05:05:50;;;;;;;12.93;5.80;;;15.40;99.90;;;;;;6193100;23;20167;-88
2023/08/12 05:08:18;;;;;;;12.50;5.90;;;15.50;99.90;;;;;;6192707;23;20191;-89
2023/08/12 05:10:48;;;;;;;9.73;5.27;;;15.60;99.90;;;;;;6223508;22;20163;-88
2023/08/12 05:13:18;;;;;;;10.00;5.23;;;15.70;99.90;;;;;;6291366;22;20198;-87
2023/08/12 05:15:49;;;;;;;9.37;5.40;;;15.70;99.90;;;;;;6343857;22;20160;-88
2023/08/12 05:18:16;;;;;;;11.60;5.30;;;15.80;99.90;;;;;;6343801;22;20184;-87
2023/08/12 05:20:43;;;;;;;13.20;5.47;;;15.90;99.90;;;;;;6316690;22;20634;-88
2023/08/12 05:23:13;;;;;;;15.43;5.97;;;16.00;99.90;;;;;;6290952;22;20188;-88
2023/08/12 05:25:40;;;;;;;10.23;5.13;;;16.10;99.90;;;;;;6315942;22;20299;-88
2023/08/12 05:28:08;;;;;;;12.67;5.40;;;16.10;99.90;;;;;;6316030;22;20286;-87
2023/08/12 05:30:35;;;;;;;8.93;5.10;;;16.10;99.90;;;;;;6343790;22;20156;-88
2023/08/12 05:33:03;;;;;;;12.63;4.80;;;16.30;99.90;;;;;;6191537;23;20278;-87
2023/08/12 05:35:34;;;;;;;10.47;5.20;;;16.30;99.90;;;;;;6192607;23;20263;-87
2023/08/12 05:38:02;;;;;;;11.90;5.50;;;16.50;99.90;;;;;;6192420;23;20191;-87
2023/08/12 05:40:29;;;;;;;9.40;4.93;;;16.60;99.90;;;;;;6168007;23;20171;-88
2023/08/12 05:42:56;;;;;;;19.13;5.80;;;16.60;99.90;;;;;;6192650;23;20201;-87
2023/08/12 05:45:24;;;;;;;20.83;6.10;;;16.80;99.90;;;;;;6192380;23;20179;-87
2023/08/12 05:47:51;;;;;;;12.63;5.63;;;16.90;99.90;;;;;;6217442;23;20213;-87
2023/08/12 05:50:18;;;;;;;11.90;5.00;;;17.00;99.90;;;;;;6184497;22;20246;-87
2023/08/12 05:52:46;;;;;;;9.07;4.97;;;17.00;99.90;;;;;;6343588;22;20566;-87
2023/08/12 05:55:13;;;;;;;8.73;4.90;;;17.20;99.90;;;;;;6315749;22;20168;-87
2023/08/12 05:57:41;;;;;;;7.60;4.53;;;17.20;99.90;;;;;;6343248;22;20183;-87
2023/08/12 06:00:08;;;;;;;10.87;4.90;;;17.30;99.90;;;;;;6316172;22;20160;-87
2023/08/12 06:02:35;;;;;;;10.97;5.17;;;17.40;99.90;;;;;;6343726;22;20176;-87
2023/08/12 06:05:02;;;;;;;13.77;5.40;;;17.50;99.90;;;;;;6343380;22;20157;-88
2023/08/12 06:07:30;;;;;;;8.97;4.77;;;17.60;99.90;;;;;;6315926;22;20188;-88
2023/08/12 06:09:57;;;;;;;13.93;5.60;;;17.80;99.90;;;;;;6316020;22;20192;-87
2023/08/12 06:12:24;;;;;;;9.83;5.17;;;17.90;99.90;;;;;;6316011;22;20184;-88
2023/08/12 06:14:51;;;;;;;15.23;5.93;;;18.00;99.90;;;;;;6290370;22;20252;-88
2023/08/12 06:17:18;;;;;;;13.27;4.73;;;18.10;99.90;;;;;;6316416;22;20184;-88
2023/08/12 06:19:45;;;;;;;9.07;4.53;;;18.20;99.90;;;;;;6316070;22;20502;-88
2023/08/12 06:22:12;;;;;;;8.40;4.40;;;18.20;99.90;;;;;;6290382;22;20168;-87
2023/08/12 06:24:40;;;;;;;7.73;4.27;;;18.30;99.90;;;;;;6316317;22;20213;-88
2023/08/12 06:27:07;;;;;;;7.73;3.70;;;18.40;99.90;;;;;;6315991;22;20582;-88
2023/08/12 06:29:34;;;;;;;5.93;3.73;;;18.50;99.90;;;;;;6316210;22;20241;-87
2023/08/12 06:32:01;;;;;;;11.43;4.63;;;18.60;99.90;;;;;;6290398;22;20225;-88
2023/08/12 06:34:28;;;;;;;6.63;3.67;;;18.70;99.90;;;;;;6315998;22;20161;-87
2023/08/12 06:36:55;;;;;;;19.47;6.20;;;18.80;99.90;;;;;;6316123;22;20214;-88
2023/08/12 06:39:23;;;;;;;6.07;3.27;;;19.00;99.90;;;;;;6290665;22;20171;-87
2023/08/12 06:41:52;;;;;;;6.43;3.43;;;19.10;99.90;;;;;;6316316;22;20164;-87
2023/08/12 06:44:19;;;;;;;7.73;3.90;;;19.30;99.90;;;;;;6316009;22;20279;-86
2023/08/12 06:46:46;;;;;;;5.77;3.30;;;19.40;99.90;;;;;;6315991;22;20156;-87
2023/08/12 06:49:13;;;;;;;6.60;3.33;;;19.50;99.90;;;;;;6316452;22;20504;-88
2023/08/12 06:51:41;;;;;;;7.13;3.40;;;19.50;99.90;;;;;;6290326;22;20301;-87
2023/08/12 06:54:08;;;;;;;4.93;2.80;;;19.70;99.90;;;;;;6342775;22;20620;-87
2023/08/12 06:56:35;;;;;;;10.23;3.87;;;19.80;99.90;;;;;;6315406;22;20169;-87
2023/08/12 06:59:02;;;;;;;5.63;3.00;;;19.90;99.90;;;;;;6316307;22;20207;-88
2023/08/12 07:01:29;;;;;;;4.80;3.00;;;20.10;99.90;;;;;;6315710;22;20195;-88
2023/08/12 07:03:56;;;;;;;8.37;3.23;;;20.20;99.90;;;;;;6315709;22;20192;-88
2023/08/12 07:06:23;;;;;;;5.87;3.03;;;20.30;99.90;;;;;;6315959;22;20164;-87
2023/08/12 07:08:50;;;;;;;13.47;3.60;;;20.30;99.90;;;;;;6343545;22;20184;-87
2023/08/12 07:11:18;;;;;;;7.80;3.10;;;20.40;99.90;;;;;;6343346;22;20465;-87
2023/08/12 07:13:46;;;;;;;4.53;2.30;;;20.50;99.90;;;;;;6315213;22;20192;-90
2023/08/12 07:16:13;;;;;;;3.47;2.20;;;20.60;99.90;;;;;;6289598;22;20474;-85
2023/08/12 07:18:40;;;;;;;7.57;2.70;;;20.80;99.90;;;;;;6316035;22;20184;-87
2023/08/12 07:21:08;;;;;;;8.37;2.50;;;21.00;99.90;;;;;;6315851;22;20251;-87
2023/08/12 07:23:35;;;;;;;5.70;1.90;;;21.10;99.90;;;;;;6315684;22;20192;-89
2023/08/12 07:26:02;;;;;;;4.63;2.10;;;21.30;99.90;;;;;;6315998;22;20204;-88
2023/08/12 07:28:29;;;;;;;4.90;1.97;;;21.40;99.90;;;;;;6315862;22;20253;-89
2023/08/12 07:30:56;;;;;;;5.73;1.90;;;21.40;99.90;;;;;;6316024;22;20156;-88
2023/08/12 07:33:24;;;;;;;4.90;1.87;;;21.50;99.90;;;;;;6342960;22;20453;-89
2023/08/12 07:35:51;;;;;;;3.83;1.90;;;21.60;99.90;;;;;;6317091;22;20175;-89
2023/08/12 07:38:19;;;;;;;5.13;2.03;;;21.70;99.90;;;;;;6317743;22;20191;-89
2023/08/12 07:40:46;;;;;;;7.33;2.40;;;21.70;99.90;;;;;;6318322;22;20184;-89
2023/08/12 07:43:13;;;;;;;4.77;1.90;;;21.70;99.90;;;;;;6292393;22;20554;-88
2023/08/12 07:45:40;;;;;;;5.23;1.80;;;21.70;99.90;;;;;;6318134;22;20172;-89
2023/08/12 07:48:07;;;;;;;5.50;2.00;;;21.70;99.90;;;;;;6317626;22;20612;-88
2023/08/12 07:50:34;;;;;;;7.77;2.20;;;21.80;99.90;;;;;;6292337;22;20175;-89
2023/08/12 07:53:02;;;;;;;4.60;2.47;;;21.90;99.90;;;;;;6292077;22;20632;-89
2023/08/12 07:55:30;;;;;;;3.57;1.97;;;22.00;99.90;;;;;;6317570;22;20209;-88
2023/08/12 07:57:57;;;;;;;5.27;2.27;;;22.10;99.90;;;;;;6317482;22;20188;-90
2023/08/12 08:00:24;;;;;;;4.90;2.20;;;22.10;99.90;;;;;;6318278;22;20227;-88
2023/08/12 08:02:52;;;;;;;5.90;1.70;;;22.10;99.90;;;;;;6292272;22;20562;-89
2023/08/12 08:05:22;;;;;;;4.23;2.10;;;22.10;99.90;;;;;;6344901;22;20157;-88
2023/08/12 08:07:50;;;;;;;2.57;1.80;;;22.10;99.90;;;;;;6344647;22;20236;-89
2023/08/12 08:10:17;;;;;;;2.77;1.80;;;22.20;99.90;;;;;;6345224;22;20204;-88
2023/08/12 08:12:44;;;;;;;5.20;2.30;;;22.10;99.90;;;;;;6318097;22;20586;-88
2023/08/12 08:15:11;;;;;;;6.07;2.37;;;22.30;99.90;;;;;;6345100;22;20459;-89
2023/08/12 08:17:39;;;;;;;3.72;1.95;;;23.40;99.90;;;;;;6317248;22;20184;-88
2023/08/12 08:20:10;;;;;;;3.10;2.17;;;24.80;99.90;;;;;;6317503;22;20164;-89
2023/08/12 08:22:37;;;;;;;9.32;2.70;;;25.80;99.90;;;;;;6345379;22;20184;-88
2023/08/12 08:25:05;;;;;;;5.07;1.90;;;26.70;99.30;;;;;;6292509;22;20251;-88
2023/08/12 08:27:33;;;;;;;2.80;1.77;;;27.40;96.40;;;;;;6317239;22;20494;-89
2023/08/12 08:30:00;;;;;;;3.17;1.80;;;27.90;93.80;;;;;;6291819;22;20218;-90
2023/08/12 08:32:27;;;;;;;2.42;1.70;;;28.40;90.60;;;;;;6345350;22;20249;-89
2023/08/12 08:34:54;;;;;;;4.65;1.50;;;28.80;87.80;;;;;;6318292;22;20202;-88
2023/08/12 08:37:21;;;;;;;4.78;1.73;;;28.90;79.30;;;;;;6317724;22;20188;-88
2023/08/12 08:39:48;;;;;;;5.38;1.83;;;29.00;79.90;;;;;;6318014;22;20199;-89
2023/08/12 08:42:18;;;;;;;3.13;1.73;;;28.90;76.70;;;;;;6344922;22;20259;-88
2023/08/12 08:44:49;;;;;;;3.85;1.60;;;28.70;73.00;;;;;;6344893;22;20187;-89
2023/08/12 08:47:19;;;;;;;3.17;1.50;;;28.50;73.50;;;;;;6344944;22;20238;-88
2023/08/12 08:49:46;;;;;;;6.63;1.58;;;28.50;72.10;;;;;;6343222;22;20198;-88
2023/08/12 08:52:15;;;;;;;16.55;3.97;;;28.90;72.90;;;;;;6290271;22;20191;-89
2023/08/12 08:54:42;;;;;;;10.93;2.30;;;29.20;72.90;;;;;;6315758;22;20203;-90
2023/08/12 08:57:12;;;;;;;4.18;2.10;;;29.20;72.00;;;;;;6343244;22;20156;-89
2023/08/12 08:59:46;;;;;;;5.25;1.65;;;29.40;72.70;;;;;;6315859;22;20275;-89
2023/08/12 09:02:19;;;;;;;9.52;2.30;;;29.60;73.70;;;;;;6290099;22;20165;-89
2023/08/12 09:04:47;;;;;;;5.43;1.73;;;29.50;70.70;;;;;;6290477;22;20260;-87
2023/08/12 09:07:14;;;;;;;4.32;1.67;;;29.70;71.10;;;;;;6316493;22;20208;-89
2023/08/12 09:09:48;;;;;;;3.55;1.70;;;29.90;69.80;;;;;;6291319;22;20191;-89
2023/08/12 09:12:16;;;;;;;7.03;2.47;;;30.00;69.40;;;;;;6291984;22;20168;-88
2023/08/12 09:14:43;;;;;;;5.72;1.83;;;30.20;68.70;;;;;;6317004;22;20477;-88
2023/08/12 09:17:11;;;;;;;4.57;1.60;;;30.30;68.50;;;;;;6344872;22;20543;-89
2023/08/12 09:19:38;;;;;;;4.82;1.63;;;30.30;66.00;;;;;;6344379;22;20160;-87
2023/08/12 09:22:09;;;;;;;4.50;1.70;;;30.00;67.30;;;;;;6344580;22;20148;-88
2023/08/12 09:24:37;;;;;;;3.35;1.70;;;29.90;66.40;;;;;;6315984;22;20306;-88
2023/08/12 09:27:04;;;;;;;4.25;2.20;;;30.00;65.20;;;;;;6315614;22;20451;-91
2023/08/12 09:29:33;;;;;;;5.00;1.75;;;29.80;65.40;;;;;;6342953;22;20179;-90
2023/08/12 09:32:13;;;;;;;2.65;1.70;;;29.50;65.50;;;;;;6289662;22;20217;-89
2023/08/12 09:34:48;;;;;;;3.47;1.63;;;29.50;66.30;;;;;;6315386;22;20168;-87
2023/08/12 09:37:15;;;;;;;4.60;1.73;;;29.50;67.00;;;;;;6315794;22;20172;-89
2023/08/12 09:39:44;;;;;;;4.88;1.80;;;29.70;63.50;;;;;;6315604;22;20565;-88
2023/08/12 09:42:12;;;;;;;3.53;1.60;;;29.70;65.00;;;;;;6315959;22;20195;-88
2023/08/12 09:44:41;;;;;;;5.00;1.70;;;30.00;65.10;;;;;;6290340;22;20199;-89
2023/08/12 09:47:08;;;;;;;4.00;1.80;;;30.20;63.00;;;;;;6315408;22;20180;-89
2023/08/12 09:49:36;;;;;;;3.42;1.60;;;30.20;62.70;;;;;;6343206;22;20481;-90
2023/08/12 09:52:04;;;;;;;5.22;1.83;;;30.00;61.80;;;;;;6315700;22;20196;-89
2023/08/12 09:54:32;;;;;;;3.50;1.73;;;29.70;62.70;;;;;;6289778;22;20245;-86
2023/08/12 09:57:00;;;;;;;3.70;1.60;;;30.10;64.70;;;;;;6342352;22;20153;-88
2023/08/12 09:59:32;;;;;;;6.03;2.47;;;30.70;64.70;;;;;;6289655;22;20168;-86
2023/08/12 10:01:59;;;;;;;4.72;1.65;;;31.10;61.80;;;;;;6315664;22;20452;-88
2023/08/12 10:04:40;;;;;;;5.75;1.52;;;31.40;61.00;;;;;;6315988;22;20176;-89
2023/08/12 10:07:10;;;;;;;5.57;2.10;;;31.40;60.30;;;;;;6290737;22;20535;-89
2023/08/12 10:09:38;;;;;;;4.35;1.83;;;31.10;61.10;;;;;;6163061;23;20253;-88
2023/08/12 10:12:10;;;;;;;3.50;1.80;;;31.10;60.30;;;;;;6188052;23;20578;-88
2023/08/12 10:14:38;;;;;;;3.13;1.50;;;31.00;59.70;;;;;;6104127;23;20168;-88
2023/08/12 10:17:06;;;;;;;5.47;1.90;;;29.90;60.90;;;;;;6103103;23;20536;-88
2023/08/12 10:19:35;;;;;;;3.72;1.70;;;30.20;59.30;;;;;;6040471;23;20179;-87
2023/08/12 10:22:03;;;;;;;2.83;1.40;;;30.50;59.90;;;;;;6017409;23;20171;-89
2023/08/12 10:24:33;;;;;;;5.85;1.80;;;30.90;59.90;;;;;;6041336;23;20174;-86
2023/08/12 10:27:01;;;;;;;5.78;1.90;;;30.70;57.70;;;;;;6041582;23;20472;-88
2023/08/12 10:29:30;;;;;;;3.10;1.52;;;30.00;58.10;;;;;;6041814;23;20182;-89
2023/08/12 10:31:58;;;;;;;8.30;2.38;;;30.20;59.20;;;;;;6051128;23;20192;-89
2023/08/12 10:34:25;;;;;;;5.13;1.90;;;30.60;60.20;;;;;;6142603;23;20167;-89
2023/08/12 10:36:57;;;;;;;4.13;1.88;;;31.30;58.40;;;;;;6237923;22;20166;-88
2023/08/12 10:39:30;;;;;;;4.75;1.92;;;31.40;57.90;;;;;;6290828;22;20178;-88
2023/08/12 10:41:58;;;;;;;3.08;1.80;;;29.90;58.00;;;;;;6315065;22;20167;-89
2023/08/12 10:44:50;;;;;;;3.22;1.90;;;30.30;59.20;;;;;;6314898;22;20262;-89
2023/08/12 10:47:18;;;;;;;5.85;1.70;;;30.90;58.50;;;;;;6315386;22;20230;-88
2023/08/12 10:49:49;;;;;;;4.13;1.80;;;31.40;59.10;;;;;;6342770;22;20204;-89
2023/08/12 10:52:29;;;;;;;2.83;1.60;;;31.80;58.40;;;;;;6314547;22;20192;-85
2023/08/12 10:55:36;;;;;;;2.58;1.80;;;32.20;57.00;;;;;;6289099;22;20164;-89
2023/08/12 10:58:08;;;;;;;2.58;1.60;;;32.50;57.60;;;;;;6216446;23;20183;-89
2023/08/12 11:00:36;;;;;;;3.90;1.80;;;32.70;56.40;;;;;;6191666;23;20202;-88
2023/08/12 11:03:06;;;;;;;5.38;1.80;;;32.70;56.70;;;;;;6166344;23;20195;-87
2023/08/12 11:05:37;;;;;;;6.68;1.67;;;32.80;55.60;;;;;;6191094;23;20179;-87
2023/08/12 11:08:05;;;;;;;3.72;1.75;;;32.80;55.20;;;;;;6191317;23;20190;-88
2023/08/12 11:10:35;;;;;;;3.53;1.70;;;33.20;55.70;;;;;;6192672;23;20218;-90
2023/08/12 11:13:03;;;;;;;3.63;1.83;;;32.90;54.80;;;;;;6168553;23;20510;-87
2023/08/12 11:15:32;;;;;;;4.65;2.00;;;32.80;55.40;;;;;;6193012;23;20527;-88
2023/08/12 11:18:03;;;;;;;7.10;1.90;;;32.50;56.20;;;;;;6218477;23;20196;-90
2023/08/12 11:20:35;;;;;;;6.75;1.98;;;32.80;56.10;;;;;;6218268;23;20162;-89
2023/08/12 11:23:03;;;;;;;4.68;2.05;;;33.20;56.60;;;;;;6193755;23;20597;-88
2023/08/12 11:25:31;;;;;;;8.95;2.13;;;33.10;55.60;;;;;;6170075;23;20201;-87
2023/08/12 11:27:59;;;;;;;3.70;1.65;;;33.30;54.70;;;;;;6219852;23;20270;-86
2023/08/12 11:30:27;;;;;;;4.93;1.98;;;33.60;54.80;;;;;;6220253;23;20182;-85
2023/08/12 11:32:59;;;;;;;6.30;1.92;;;33.60;55.20;;;;;;6305010;22;20174;-86
2023/08/12 11:35:27;;;;;;;3.65;1.90;;;34.00;55.50;;;;;;6293231;22;20455;-88
2023/08/12 11:37:56;;;;;;;4.28;1.83;;;34.30;55.40;;;;;;6345426;22;20219;-90
2023/08/12 11:40:24;;;;;;;4.55;1.70;;;34.50;54.10;;;;;;6318219;22;20251;-90
2023/08/12 11:42:53;;;;;;;4.13;1.75;;;34.50;54.50;;;;;;6318669;22;20208;-88
2023/08/12 11:45:25;;;;;;;3.67;1.73;;;34.70;54.30;;;;;;6293149;22;20164;-89
2023/08/12 11:47:55;;;;;;;5.03;2.00;;;34.70;53.20;;;;;;6318482;22;20187;-87
2023/08/12 11:50:25;;;;;;;5.47;1.88;;;34.90;53.00;;;;;;6318294;22;20184;-86
2023/08/12 11:52:55;;;;;;;3.05;1.80;;;34.30;53.20;;;;;;6292134;22;20191;-85
2023/08/12 11:55:23;;;;;;;4.97;2.05;;;34.40;53.70;;;;;;6318446;22;20168;-83
2023/08/12 11:57:51;;;;;;;3.78;1.70;;;33.80;54.30;;;;;;6345524;22;20232;-85
2023/08/12 12:00:20;;;;;;;4.32;1.90;;;33.70;54.70;;;;;;6292767;22;20515;-83
2023/08/12 12:02:55;;;;;;;7.13;2.20;;;34.20;54.80;;;;;;6318185;22;20208;-85
2023/08/12 12:05:27;;;;;;;3.85;1.67;;;34.60;53.80;;;;;;6345530;22;20163;-87
2023/08/12 12:07:54;;;;;;;3.58;1.90;;;34.90;53.60;;;;;;6316946;22;20180;-85
2023/08/12 12:10:27;;;;;;;4.28;2.15;;;34.20;52.50;;;;;;6317817;22;20200;-87
2023/08/12 12:13:00;;;;;;;5.15;1.73;;;34.50;53.10;;;;;;6318126;22;20269;-86
2023/08/12 12:15:27;;;;;;;4.88;1.95;;;34.40;52.70;;;;;;6345120;22;20156;-86
2023/08/12 12:17:55;;;;;;;2.75;1.67;;;34.70;51.80;;;;;;6318218;22;20281;-85
2023/08/12 12:20:22;;;;;;;4.22;2.05;;;34.50;52.80;;;;;;6318174;22;20172;-86
2023/08/12 12:22:50;;;;;;;4.30;1.90;;;33.80;53.80;;;;;;6318022;22;20192;-87
2023/08/12 12:25:20;;;;;;;3.33;1.75;;;34.50;53.80;;;;;;6318086;22;20148;-85
2023/08/12 12:27:48;;;;;;;3.25;1.80;;;34.60;52.90;;;;;;6345276;22;20253;-85
2023/08/12 12:30:16;;;;;;;5.00;1.80;;;34.90;51.80;;;;;;6317708;22;20185;-86
2023/08/12 12:32:44;;;;;;;4.80;1.90;;;34.50;53.20;;;;;;6163472;23;20270;-85
2023/08/12 12:35:12;;;;;;;4.60;1.95;;;35.20;52.70;;;;;;6189231;23;20164;-83
2023/08/12 12:37:40;;;;;;;3.50;1.50;;;35.40;51.20;;;;;;6162810;23;20270;-87
2023/08/12 12:40:09;;;;;;;3.83;1.65;;;35.60;52.80;;;;;;6163381;23;20451;-86
2023/08/12 12:42:38;;;;;;;3.85;1.77;;;36.20;51.70;;;;;;6188598;23;20262;-86
2023/08/12 12:45:06;;;;;;;4.65;1.90;;;36.90;51.80;;;;;;6163457;23;20167;-83
2023/08/12 12:47:33;;;;;;;5.72;1.70;;;37.00;49.50;;;;;;6157623;23;20227;-84
2023/08/12 12:50:01;;;;;;;6.25;2.03;;;36.90;49.70;;;;;;6170051;23;20629;-86
2023/08/12 12:52:28;;;;;;;3.38;2.10;;;36.00;49.30;;;;;;6222220;23;20190;-86
2023/08/12 12:54:57;;;;;;;4.38;2.03;;;35.40;49.60;;;;;;6221998;23;20220;-85
2023/08/12 12:57:24;;;;;;;2.97;1.70;;;35.50;50.20;;;;;;6222588;23;20186;-86
2023/08/12 12:59:51;;;;;;;2.97;1.63;;;35.50;50.30;;;;;;6223832;23;20245;-85
2023/08/12 13:02:19;;;;;;;7.05;2.10;;;36.00;50.30;;;;;;6249284;23;20190;-85
2023/08/12 13:04:46;;;;;;;5.82;1.90;;;36.20;50.60;;;;;;6209811;22;20333;-88
2023/08/12 13:07:15;;;;;;;4.57;2.03;;;36.20;50.60;;;;;;6291750;22;20209;-86
2023/08/12 13:09:42;;;;;;;3.00;1.50;;;36.60;50.50;;;;;;6344368;22;20160;-86
2023/08/12 13:12:09;;;;;;;4.13;1.80;;;36.80;48.90;;;;;;6291432;22;20172;-87
2023/08/12 13:14:37;;;;;;;5.32;1.80;;;36.70;49.10;;;;;;6317682;22;20191;-86
2023/08/12 13:17:04;;;;;;;3.70;1.73;;;36.50;49.90;;;;;;6316796;22;20249;-87
2023/08/12 13:19:32;;;;;;;5.32;1.80;;;36.50;49.80;;;;;;6344047;22;20184;-86
2023/08/12 13:21:59;;;;;;;2.85;1.80;;;36.40;49.00;;;;;;6291815;22;20168;-88
2023/08/12 13:24:27;;;;;;;4.65;2.05;;;35.70;49.50;;;;;;6317660;22;20399;-86
2023/08/12 13:27:01;;;;;;;3.83;1.90;;;35.40;50.00;;;;;;6344890;22;20605;-85
2023/08/12 13:29:30;;;;;;;2.50;1.90;;;35.30;50.70;;;;;;6317934;22;20160;-85
2023/08/12 13:31:58;;;;;;;4.25;1.90;;;34.40;50.50;;;;;;6316299;22;20506;-85
2023/08/12 13:34:25;;;;;;;5.05;1.85;;;34.20;52.30;;;;;;6316997;22;20187;-84
2023/08/12 13:36:52;;;;;;;4.20;1.73;;;34.20;52.40;;;;;;6316930;22;20255;-85
2023/08/12 13:39:20;;;;;;;2.92;1.75;;;34.70;52.00;;;;;;6317061;22;20195;-85
2023/08/12 13:41:48;;;;;;;2.65;1.73;;;34.70;51.10;;;;;;6289802;22;20192;-81
2023/08/12 13:44:15;;;;;;;3.25;1.70;;;35.10;51.40;;;;;;6314768;22;20590;-86
2023/08/12 13:46:42;;;;;;;5.95;2.10;;;35.40;51.00;;;;;;6342536;22;20160;-86
2023/08/12 13:49:09;;;;;;;5.68;2.08;;;35.60;51.10;;;;;;6289773;22;20196;-85
2023/08/12 13:51:36;;;;;;;4.15;1.75;;;35.50;50.40;;;;;;6315488;22;20188;-85
2023/08/12 13:54:04;;;;;;;6.00;2.17;;;35.50;50.40;;;;;;6316638;22;20184;-86
2023/08/12 13:56:31;;;;;;;4.30;1.65;;;35.50;50.70;;;;;;6316361;22;20255;-85
2023/08/12 13:58:58;;;;;;;3.35;1.60;;;35.60;50.00;;;;;;6315385;22;20184;-86
2023/08/12 14:01:25;;;;;;;3.70;1.80;;;35.60;50.00;;;;;;6342392;22;20240;-86
2023/08/12 14:03:52;;;;;;;3.33;1.73;;;36.00;50.00;;;;;;6314963;22;20195;-86
2023/08/12 14:06:21;;;;;;;2.90;1.63;;;36.00;49.80;;;;;;6289740;22;20218;-84
2023/08/12 14:08:48;;;;;;;4.07;1.70;;;36.20;50.20;;;;;;6314615;22;20192;-86
2023/08/12 14:11:15;;;;;;;7.22;1.73;;;36.80;49.10;;;;;;6315105;22;20563;-87
2023/08/12 14:13:42;;;;;;;4.43;1.50;;;37.00;48.50;;;;;;6314385;22;20192;-87
2023/08/12 14:16:10;;;;;;;4.32;1.80;;;37.20;48.20;;;;;;6315538;22;20164;-85
2023/08/12 14:18:37;;;;;;;4.45;1.77;;;37.40;48.70;;;;;;6343298;22;20202;-85
2023/08/12 14:21:04;;;;;;;8.23;1.88;;;37.40;48.50;;;;;;6316987;22;20171;-84
2023/08/12 14:23:32;;;;;;;4.53;1.70;;;37.70;48.30;;;;;;6290290;22;20230;-84
2023/08/12 14:25:59;;;;;;;3.00;1.70;;;37.30;46.90;;;;;;6289218;22;20168;-85
2023/08/12 14:28:26;;;;;;;3.65;1.70;;;37.40;48.10;;;;;;6342349;22;20180;-86
2023/08/12 14:30:54;;;;;;;5.43;1.88;;;37.70;47.40;;;;;;6289185;22;20188;-85
2023/08/12 14:33:24;;;;;;;4.32;1.70;;;37.70;47.40;;;;;;6314880;22;20643;-86
2023/08/12 14:35:53;;;;;;;3.47;1.80;;;36.80;47.60;;;;;;6315336;22;20160;-86
2023/08/12 14:38:21;;;;;;;3.03;1.50;;;36.60;48.90;;;;;;6343958;22;20176;-85
2023/08/12 14:40:48;;;;;;;2.58;1.50;;;36.80;48.40;;;;;;6290644;22;20172;-85
2023/08/12 14:43:16;;;;;;;4.22;1.92;;;36.50;48.70;;;;;;6315947;22;20243;-85
2023/08/12 14:45:46;;;;;;;2.58;1.70;;;36.20;48.30;;;;;;6289421;22;20195;-85
2023/08/12 14:48:16;;;;;;;3.08;1.80;;;35.20;49.20;;;;;;6314997;22;20195;-84
2023/08/12 14:50:44;;;;;;;4.13;1.90;;;34.90;51.10;;;;;;6314499;22;20184;-83
2023/08/12 14:53:11;;;;;;;5.65;1.77;;;34.50;50.30;;;;;;6314901;22;20190;-86
2023/08/12 14:55:38;;;;;;;3.72;1.88;;;33.10;51.90;;;;;;6314399;22;20188;-86
2023/08/12 14:58:06;;;;;;;3.40;1.55;;;33.70;51.30;;;;;;6314633;22;20180;-86
2023/08/12 15:00:33;;;;;;;4.70;1.75;;;34.20;51.80;;;;;;6289412;22;20246;-87
2023/08/12 15:03:01;;;;;;;3.65;1.67;;;34.40;51.60;;;;;;6314852;22;20188;-84
2023/08/12 15:05:29;;;;;;;6.28;2.20;;;34.70;51.50;;;;;;6314777;22;20168;-87
2023/08/12 15:07:56;;;;;;;4.18;2.03;;;33.70;51.20;;;;;;6341821;22;20229;-87
2023/08/12 15:10:23;;;;;;;3.50;1.60;;;33.90;51.40;;;;;;6314788;22;20232;-84
2023/08/12 15:12:50;;;;;;;3.08;1.83;;;34.20;50.90;;;;;;6314803;22;20226;-86
2023/08/12 15:15:18;;;;;;;3.58;1.88;;;34.50;50.30;;;;;;6314770;22;20164;-86
2023/08/12 15:17:45;;;;;;;3.35;1.77;;;35.20;49.80;;;;;;6289057;22;20184;-85
2023/08/12 15:20:13;;;;;;;3.22;1.75;;;35.60;50.00;;;;;;6314712;22;20175;-85
2023/08/12 15:22:40;;;;;;;3.22;1.48;;;36.20;49.70;;;;;;6342205;22;20219;-86
2023/08/12 15:25:08;;;;;;;2.92;1.73;;;36.70;48.90;;;;;;6342128;22;20738;-87
2023/08/12 15:27:35;;;;;;;3.78;1.58;;;36.70;48.50;;;;;;6313903;22;20214;-86
2023/08/12 15:30:03;;;;;;;3.88;1.80;;;36.60;48.20;;;;;;6314756;22;20164;-88
2023/08/12 15:32:30;;;;;;;6.75;2.00;;;36.60;47.60;;;;;;6314292;22;20189;-87
2023/08/12 15:35:01;;;;;;;2.55;1.67;;;36.60;47.90;;;;;;6314062;22;20519;-86
2023/08/12 15:37:28;;;;;;;4.55;1.80;;;36.80;48.20;;;;;;6314781;22;20172;-87
2023/08/12 15:39:56;;;;;;;3.05;1.65;;;36.90;47.90;;;;;;6315198;22;20161;-87
2023/08/12 15:42:23;;;;;;;2.75;1.67;;;37.10;48.00;;;;;;6315082;22;20185;-86
2023/08/12 15:44:51;;;;;;;2.35;1.70;;;36.60;47.10;;;;;;6315049;22;20164;-86
2023/08/12 15:47:18;;;;;;;7.28;2.13;;;36.10;48.10;;;;;;6314929;22;20302;-86
2023/08/12 15:49:45;;;;;;;5.78;2.30;;;36.20;48.30;;;;;;6314274;22;20175;-85